sensor_id;sensor_type;location;lat;lon;timestamp;P1;durP1;ratioP1;P2;durP2;ratioP2
4430;SDS011;2228;48.140;11.488;2022-09-13T00:00:47;13.38;;;9.02;;
4430;SDS011;2228;48.140;11.488;2022-09-13T00:03:14;17.83;;;10.50;;
4430;SDS011;2228;48.140;11.488;2022-09-13T00:05:41;16.70;;;10.77;;
4430;SDS011;2228;48.140;11.488;2022-09-13T00:08:09;17.50;;;10.95;;
4430;SDS011;2228;48.140;11.488;2022-09-13T00:10:38;12.70;;;8.55;;
4430;SDS011;2228;48.140;11.488;2022-09-13T00:13:06;16.75;;;9.00;;
4430;SDS011;2228;48.140;11.488;2022-09-13T00:15:35;16.02;;;10.20;;
4430;SDS011;2228;48.140;11.488;2022-09-13T00:18:02;15.88;;;10.15;;
4430;SDS011;2228;48.140;11.488;2022-09-13T00:20:29;15.88;;;9.90;;
4430;SDS011;2228;48.140;11.488;2022-09-13T00:22:56;14.00;;;9.60;;
4430;SDS011;2228;48.140;11.488;2022-09-13T00:25:24;17.27;;;9.50;;
4430;SDS011;2228;48.140;11.488;2022-09-13T00:27:51;14.85;;;8.73;;
4430;SDS011;2228;48.140;11.488;2022-09-13T00:30:17;17.73;;;10.35;;
4430;SDS011;2228;48.140;11.488;2022-09-13T00:32:44;13.40;;;9.15;;
4430;SDS011;2228;48.140;11.488;2022-09-13T00:35:11;19.17;;;9.40;;
4430;SDS011;2228;48.140;11.488;2022-09-13T00:37:38;11.73;;;8.43;;
4430;SDS011;2228;48.140;11.488;2022-09-13T00:40:06;14.95;;;8.52;;
4430;SDS011;2228;48.140;11.488;2022-09-13T00:42:34;20.10;;;10.00;;
4430;SDS011;2228;48.140;11.488;2022-09-13T00:45:02;14.98;;;8.60;;
4430;SDS011;2228;48.140;11.488;2022-09-13T00:47:40;13.80;;;8.10;;
4430;SDS011;2228;48.140;11.488;2022-09-13T00:50:10;13.35;;;8.00;;
4430;SDS011;2228;48.140;11.488;2022-09-13T00:52:42;11.73;;;7.70;;
4430;SDS011;2228;48.140;11.488;2022-09-13T00:55:14;13.25;;;7.95;;
4430;SDS011;2228;48.140;11.488;2022-09-13T00:57:46;12.45;;;7.95;;
4430;SDS011;2228;48.140;11.488;2022-09-13T01:00:15;14.30;;;7.63;;
4430;SDS011;2228;48.140;11.488;2022-09-13T01:02:45;9.52;;;6.75;;
4430;SDS011;2228;48.140;11.488;2022-09-13T01:05:15;8.75;;;6.30;;
4430;SDS011;2228;48.140;11.488;2022-09-13T01:07:45;12.38;;;7.72;;
4430;SDS011;2228;48.140;11.488;2022-09-13T01:10:12;9.90;;;7.40;;
4430;SDS011;2228;48.140;11.488;2022-09-13T01:12:40;10.60;;;7.22;;
4430;SDS011;2228;48.140;11.488;2022-09-13T01:15:13;13.23;;;7.10;;
4430;SDS011;2228;48.140;11.488;2022-09-13T01:17:40;12.97;;;7.47;;
4430;SDS011;2228;48.140;11.488;2022-09-13T01:20:08;10.60;;;6.72;;
4430;SDS011;2228;48.140;11.488;2022-09-13T01:26:08;9.15;;;5.30;;
4430;SDS011;2228;48.140;11.488;2022-09-13T01:29:03;8.43;;;5.20;;
4430;SDS011;2228;48.140;11.488;2022-09-13T01:31:48;9.30;;;5.70;;
4430;SDS011;2228;48.140;11.488;2022-09-13T01:34:22;7.97;;;5.30;;
4430;SDS011;2228;48.140;11.488;2022-09-13T01:37:00;7.22;;;5.30;;
4430;SDS011;2228;48.140;11.488;2022-09-13T01:39:48;8.40;;;5.00;;
4430;SDS011;2228;48.140;11.488;2022-09-13T01:42:26;9.18;;;5.32;;
4430;SDS011;2228;48.140;11.488;2022-09-13T01:45:01;7.10;;;4.80;;
4430;SDS011;2228;48.140;11.488;2022-09-13T01:47:39;7.60;;;5.80;;
4430;SDS011;2228;48.140;11.488;2022-09-13T01:50:12;9.68;;;6.07;;
4430;SDS011;2228;48.140;11.488;2022-09-13T01:52:47;6.38;;;4.75;;
4430;SDS011;2228;48.140;11.488;2022-09-13T01:55:20;7.43;;;5.30;;
4430;SDS011;2228;48.140;11.488;2022-09-13T01:57:53;10.23;;;6.30;;
4430;SDS011;2228;48.140;11.488;2022-09-13T02:00:26;8.25;;;5.30;;
4430;SDS011;2228;48.140;11.488;2022-09-13T02:03:01;6.82;;;5.10;;
4430;SDS011;2228;48.140;11.488;2022-09-13T02:05:32;7.80;;;5.55;;
4430;SDS011;2228;48.140;11.488;2022-09-13T02:08:03;8.20;;;5.50;;
4430;SDS011;2228;48.140;11.488;2022-09-13T02:10:34;5.72;;;4.80;;
4430;SDS011;2228;48.140;11.488;2022-09-13T02:13:05;10.73;;;5.90;;
4430;SDS011;2228;48.140;11.488;2022-09-13T02:15:37;11.30;;;5.93;;
4430;SDS011;2228;48.140;11.488;2022-09-13T02:18:11;8.85;;;5.65;;
4430;SDS011;2228;48.140;11.488;2022-09-13T02:20:42;10.50;;;5.60;;
4430;SDS011;2228;48.140;11.488;2022-09-13T02:23:13;11.55;;;6.32;;
4430;SDS011;2228;48.140;11.488;2022-09-13T02:25:42;9.25;;;6.50;;
4430;SDS011;2228;48.140;11.488;2022-09-13T02:28:14;7.15;;;5.32;;
4430;SDS011;2228;48.140;11.488;2022-09-13T02:30:47;11.65;;;5.50;;
4430;SDS011;2228;48.140;11.488;2022-09-13T02:33:19;9.63;;;5.10;;
4430;SDS011;2228;48.140;11.488;2022-09-13T02:35:50;6.68;;;5.10;;
4430;SDS011;2228;48.140;11.488;2022-09-13T02:38:21;7.13;;;4.40;;
4430;SDS011;2228;48.140;11.488;2022-09-13T02:40:52;9.90;;;5.00;;
4430;SDS011;2228;48.140;11.488;2022-09-13T02:43:25;7.93;;;5.03;;
4430;SDS011;2228;48.140;11.488;2022-09-13T02:46:00;8.85;;;5.30;;
4430;SDS011;2228;48.140;11.488;2022-09-13T02:48:44;8.80;;;5.40;;
4430;SDS011;2228;48.140;11.488;2022-09-13T02:51:23;11.00;;;5.70;;
4430;SDS011;2228;48.140;11.488;2022-09-13T02:53:54;6.95;;;5.38;;
4430;SDS011;2228;48.140;11.488;2022-09-13T02:56:33;9.68;;;6.40;;
4430;SDS011;2228;48.140;11.488;2022-09-13T02:59:09;7.97;;;5.50;;
4430;SDS011;2228;48.140;11.488;2022-09-13T03:01:40;9.65;;;4.70;;
4430;SDS011;2228;48.140;11.488;2022-09-13T03:04:13;8.20;;;5.53;;
4430;SDS011;2228;48.140;11.488;2022-09-13T03:06:40;7.30;;;5.30;;
4430;SDS011;2228;48.140;11.488;2022-09-13T03:09:07;7.15;;;4.90;;
4430;SDS011;2228;48.140;11.488;2022-09-13T03:11:37;7.35;;;4.40;;
4430;SDS011;2228;48.140;11.488;2022-09-13T03:14:20;6.30;;;4.50;;
4430;SDS011;2228;48.140;11.488;2022-09-13T03:17:03;8.13;;;5.30;;
4430;SDS011;2228;48.140;11.488;2022-09-13T03:19:55;6.13;;;4.50;;
4430;SDS011;2228;48.140;11.488;2022-09-13T03:22:38;6.80;;;4.10;;
4430;SDS011;2228;48.140;11.488;2022-09-13T03:25:18;7.13;;;4.20;;
4430;SDS011;2228;48.140;11.488;2022-09-13T03:27:57;8.95;;;4.60;;
4430;SDS011;2228;48.140;11.488;2022-09-13T03:30:34;5.90;;;4.68;;
4430;SDS011;2228;48.140;11.488;2022-09-13T03:33:05;7.25;;;4.72;;
4430;SDS011;2228;48.140;11.488;2022-09-13T03:35:39;12.82;;;5.90;;
4430;SDS011;2228;48.140;11.488;2022-09-13T03:38:10;9.30;;;5.65;;
4430;SDS011;2228;48.140;11.488;2022-09-13T03:40:40;7.45;;;5.18;;
4430;SDS011;2228;48.140;11.488;2022-09-13T03:43:13;7.53;;;5.07;;
4430;SDS011;2228;48.140;11.488;2022-09-13T03:45:44;6.60;;;4.50;;
4430;SDS011;2228;48.140;11.488;2022-09-13T03:48:14;5.70;;;4.60;;
4430;SDS011;2228;48.140;11.488;2022-09-13T03:50:44;5.87;;;4.60;;
4430;SDS011;2228;48.140;11.488;2022-09-13T03:53:12;8.00;;;4.35;;
4430;SDS011;2228;48.140;11.488;2022-09-13T03:55:43;7.20;;;4.80;;
4430;SDS011;2228;48.140;11.488;2022-09-13T03:58:11;7.47;;;4.90;;
4430;SDS011;2228;48.140;11.488;2022-09-13T04:00:39;10.20;;;6.40;;
4430;SDS011;2228;48.140;11.488;2022-09-13T04:03:06;7.00;;;4.80;;
4430;SDS011;2228;48.140;11.488;2022-09-13T04:05:34;7.45;;;4.70;;
4430;SDS011;2228;48.140;11.488;2022-09-13T04:08:02;7.60;;;5.63;;
4430;SDS011;2228;48.140;11.488;2022-09-13T04:10:31;9.52;;;5.65;;
4430;SDS011;2228;48.140;11.488;2022-09-13T04:12:58;9.52;;;6.65;;
4430;SDS011;2228;48.140;11.488;2022-09-13T04:15:26;10.68;;;6.60;;
4430;SDS011;2228;48.140;11.488;2022-09-13T04:17:53;11.20;;;6.55;;
4430;SDS011;2228;48.140;11.488;2022-09-13T04:20:20;13.00;;;6.33;;
4430;SDS011;2228;48.140;11.488;2022-09-13T04:22:49;8.55;;;6.03;;
4430;SDS011;2228;48.140;11.488;2022-09-13T04:25:18;8.25;;;5.20;;
4430;SDS011;2228;48.140;11.488;2022-09-13T04:27:46;7.60;;;5.00;;
4430;SDS011;2228;48.140;11.488;2022-09-13T04:30:13;7.40;;;5.10;;
4430;SDS011;2228;48.140;11.488;2022-09-13T04:32:41;8.30;;;4.85;;
4430;SDS011;2228;48.140;11.488;2022-09-13T04:35:09;5.88;;;4.60;;
4430;SDS011;2228;48.140;11.488;2022-09-13T04:37:36;7.75;;;4.80;;
4430;SDS011;2228;48.140;11.488;2022-09-13T04:40:03;5.30;;;4.40;;
4430;SDS011;2228;48.140;11.488;2022-09-13T04:42:33;9.00;;;4.70;;
4430;SDS011;2228;48.140;11.488;2022-09-13T04:45:00;8.68;;;4.60;;
4430;SDS011;2228;48.140;11.488;2022-09-13T04:47:27;6.70;;;4.50;;
4430;SDS011;2228;48.140;11.488;2022-09-13T04:49:55;8.95;;;5.20;;
4430;SDS011;2228;48.140;11.488;2022-09-13T04:52:21;8.00;;;4.60;;
4430;SDS011;2228;48.140;11.488;2022-09-13T04:54:48;5.30;;;4.00;;
4430;SDS011;2228;48.140;11.488;2022-09-13T04:57:15;7.63;;;4.22;;
4430;SDS011;2228;48.140;11.488;2022-09-13T04:59:43;6.95;;;4.32;;
4430;SDS011;2228;48.140;11.488;2022-09-13T05:02:10;7.00;;;4.80;;
4430;SDS011;2228;48.140;11.488;2022-09-13T05:04:37;7.70;;;4.40;;
4430;SDS011;2228;48.140;11.488;2022-09-13T05:07:04;7.97;;;4.90;;
4430;SDS011;2228;48.140;11.488;2022-09-13T05:09:30;7.93;;;5.30;;
4430;SDS011;2228;48.140;11.488;2022-09-13T05:11:57;11.77;;;5.30;;
4430;SDS011;2228;48.140;11.488;2022-09-13T05:14:24;5.82;;;4.57;;
4430;SDS011;2228;48.140;11.488;2022-09-13T05:16:52;7.68;;;4.70;;
4430;SDS011;2228;48.140;11.488;2022-09-13T05:19:19;9.38;;;4.88;;
4430;SDS011;2228;48.140;11.488;2022-09-13T05:21:46;6.03;;;4.63;;
4430;SDS011;2228;48.140;11.488;2022-09-13T05:24:13;7.07;;;4.57;;
4430;SDS011;2228;48.140;11.488;2022-09-13T05:26:40;9.93;;;4.35;;
4430;SDS011;2228;48.140;11.488;2022-09-13T05:29:07;13.18;;;4.80;;
4430;SDS011;2228;48.140;11.488;2022-09-13T05:31:34;5.40;;;3.50;;
4430;SDS011;2228;48.140;11.488;2022-09-13T05:34:04;7.67;;;4.40;;
4430;SDS011;2228;48.140;11.488;2022-09-13T05:36:35;7.22;;;4.78;;
4430;SDS011;2228;48.140;11.488;2022-09-13T05:39:02;5.15;;;3.92;;
4430;SDS011;2228;48.140;11.488;2022-09-13T05:41:29;6.30;;;3.97;;
4430;SDS011;2228;48.140;11.488;2022-09-13T05:43:56;5.90;;;4.40;;
4430;SDS011;2228;48.140;11.488;2022-09-13T05:46:23;6.20;;;4.05;;
4430;SDS011;2228;48.140;11.488;2022-09-13T05:48:50;7.15;;;4.35;;
4430;SDS011;2228;48.140;11.488;2022-09-13T05:51:18;5.40;;;3.90;;
4430;SDS011;2228;48.140;11.488;2022-09-13T05:53:46;4.50;;;3.30;;
4430;SDS011;2228;48.140;11.488;2022-09-13T05:56:15;5.68;;;3.80;;
4430;SDS011;2228;48.140;11.488;2022-09-13T05:58:44;5.30;;;3.30;;
4430;SDS011;2228;48.140;11.488;2022-09-13T06:01:13;6.80;;;3.40;;
4430;SDS011;2228;48.140;11.488;2022-09-13T06:03:41;3.85;;;2.90;;
4430;SDS011;2228;48.140;11.488;2022-09-13T06:06:09;5.38;;;3.20;;
4430;SDS011;2228;48.140;11.488;2022-09-13T06:08:37;4.45;;;3.10;;
4430;SDS011;2228;48.140;11.488;2022-09-13T06:11:05;3.47;;;2.70;;
4430;SDS011;2228;48.140;11.488;2022-09-13T06:13:33;4.00;;;2.80;;
4430;SDS011;2228;48.140;11.488;2022-09-13T06:16:01;7.03;;;2.45;;
4430;SDS011;2228;48.140;11.488;2022-09-13T06:18:29;5.07;;;1.88;;
4430;SDS011;2228;48.140;11.488;2022-09-13T06:20:56;3.40;;;2.28;;
4430;SDS011;2228;48.140;11.488;2022-09-13T06:23:24;4.20;;;2.05;;
4430;SDS011;2228;48.140;11.488;2022-09-13T06:25:59;3.95;;;2.25;;
4430;SDS011;2228;48.140;11.488;2022-09-13T06:28:27;6.07;;;2.30;;
4430;SDS011;2228;48.140;11.488;2022-09-13T06:30:58;3.30;;;2.00;;
4430;SDS011;2228;48.140;11.488;2022-09-13T06:33:26;2.40;;;1.50;;
4430;SDS011;2228;48.140;11.488;2022-09-13T06:35:53;4.40;;;1.90;;
4430;SDS011;2228;48.140;11.488;2022-09-13T06:38:20;3.60;;;1.80;;
4430;SDS011;2228;48.140;11.488;2022-09-13T06:40:47;1.65;;;1.50;;
4430;SDS011;2228;48.140;11.488;2022-09-13T06:43:15;2.00;;;1.60;;
4430;SDS011;2228;48.140;11.488;2022-09-13T06:45:41;4.32;;;1.40;;
4430;SDS011;2228;48.140;11.488;2022-09-13T06:48:08;3.60;;;1.40;;
4430;SDS011;2228;48.140;11.488;2022-09-13T06:50:35;3.80;;;1.50;;
4430;SDS011;2228;48.140;11.488;2022-09-13T06:53:02;1.52;;;1.17;;
4430;SDS011;2228;48.140;11.488;2022-09-13T06:55:29;3.95;;;1.40;;
4430;SDS011;2228;48.140;11.488;2022-09-13T06:57:57;6.05;;;1.50;;
4430;SDS011;2228;48.140;11.488;2022-09-13T07:00:25;3.15;;;1.20;;
4430;SDS011;2228;48.140;11.488;2022-09-13T07:02:52;2.20;;;1.23;;
4430;SDS011;2228;48.140;11.488;2022-09-13T07:05:19;3.50;;;1.45;;
4430;SDS011;2228;48.140;11.488;2022-09-13T07:07:46;2.37;;;1.20;;
4430;SDS011;2228;48.140;11.488;2022-09-13T07:10:13;3.42;;;1.27;;
4430;SDS011;2228;48.140;11.488;2022-09-13T07:12:40;3.03;;;1.20;;
4430;SDS011;2228;48.140;11.488;2022-09-13T07:15:07;3.38;;;1.20;;
4430;SDS011;2228;48.140;11.488;2022-09-13T07:17:36;3.07;;;1.20;;
4430;SDS011;2228;48.140;11.488;2022-09-13T07:20:02;1.13;;;1.02;;
4430;SDS011;2228;48.140;11.488;2022-09-13T07:22:32;2.17;;;1.00;;
4430;SDS011;2228;48.140;11.488;2022-09-13T07:24:59;1.58;;;1.10;;
4430;SDS011;2228;48.140;11.488;2022-09-13T07:27:26;2.25;;;1.10;;
4430;SDS011;2228;48.140;11.488;2022-09-13T07:29:53;1.00;;;0.90;;
4430;SDS011;2228;48.140;11.488;2022-09-13T07:32:20;1.38;;;0.90;;
4430;SDS011;2228;48.140;11.488;2022-09-13T07:34:48;4.60;;;1.10;;
4430;SDS011;2228;48.140;11.488;2022-09-13T07:37:15;4.20;;;1.00;;
4430;SDS011;2228;48.140;11.488;2022-09-13T07:39:42;2.37;;;1.00;;
4430;SDS011;2228;48.140;11.488;2022-09-13T07:42:09;1.70;;;1.00;;
4430;SDS011;2228;48.140;11.488;2022-09-13T07:44:35;2.20;;;1.00;;
4430;SDS011;2228;48.140;11.488;2022-09-13T07:47:02;3.30;;;0.90;;
4430;SDS011;2228;48.140;11.488;2022-09-13T07:49:29;4.03;;;1.10;;
4430;SDS011;2228;48.140;11.488;2022-09-13T07:51:57;1.40;;;0.90;;
4430;SDS011;2228;48.140;11.488;2022-09-13T07:54:24;2.80;;;0.80;;
4430;SDS011;2228;48.140;11.488;2022-09-13T07:56:51;1.40;;;0.80;;
4430;SDS011;2228;48.140;11.488;2022-09-13T07:59:18;1.40;;;0.80;;
4430;SDS011;2228;48.140;11.488;2022-09-13T08:01:46;1.60;;;0.90;;
4430;SDS011;2228;48.140;11.488;2022-09-13T08:04:14;2.70;;;0.80;;
4430;SDS011;2228;48.140;11.488;2022-09-13T08:06:42;2.55;;;1.00;;
4430;SDS011;2228;48.140;11.488;2022-09-13T08:09:12;1.00;;;0.80;;
4430;SDS011;2228;48.140;11.488;2022-09-13T08:11:40;2.90;;;0.90;;
4430;SDS011;2228;48.140;11.488;2022-09-13T08:14:09;2.77;;;0.90;;
4430;SDS011;2228;48.140;11.488;2022-09-13T08:16:37;1.13;;;0.95;;
4430;SDS011;2228;48.140;11.488;2022-09-13T08:19:05;5.30;;;1.30;;
4430;SDS011;2228;48.140;11.488;2022-09-13T08:21:35;4.20;;;1.10;;
4430;SDS011;2228;48.140;11.488;2022-09-13T08:24:04;1.60;;;0.80;;
4430;SDS011;2228;48.140;11.488;2022-09-13T08:26:34;2.10;;;0.90;;
4430;SDS011;2228;48.140;11.488;2022-09-13T08:29:02;4.20;;;1.00;;
4430;SDS011;2228;48.140;11.488;2022-09-13T08:31:30;3.75;;;0.90;;
4430;SDS011;2228;48.140;11.488;2022-09-13T08:33:58;2.05;;;1.00;;
4430;SDS011;2228;48.140;11.488;2022-09-13T08:36:26;4.30;;;1.00;;
4430;SDS011;2228;48.140;11.488;2022-09-13T08:38:54;2.80;;;0.85;;
4430;SDS011;2228;48.140;11.488;2022-09-13T08:41:28;3.47;;;1.10;;
4430;SDS011;2228;48.140;11.488;2022-09-13T08:44:17;2.70;;;1.00;;
4430;SDS011;2228;48.140;11.488;2022-09-13T08:46:51;2.80;;;0.90;;
4430;SDS011;2228;48.140;11.488;2022-09-13T08:49:22;2.50;;;0.90;;
4430;SDS011;2228;48.140;11.488;2022-09-13T08:51:54;1.27;;;0.80;;
4430;SDS011;2228;48.140;11.488;2022-09-13T08:54:23;2.70;;;0.90;;
4430;SDS011;2228;48.140;11.488;2022-09-13T08:56:54;4.22;;;0.82;;
4430;SDS011;2228;48.140;11.488;2022-09-13T08:59:32;2.50;;;0.80;;
4430;SDS011;2228;48.140;11.488;2022-09-13T09:02:22;1.02;;;0.90;;
4430;SDS011;2228;48.140;11.488;2022-09-13T09:05:00;1.00;;;0.90;;
4430;SDS011;2228;48.140;11.488;2022-09-13T09:07:31;3.33;;;1.17;;
4430;SDS011;2228;48.140;11.488;2022-09-13T09:10:03;2.30;;;1.00;;
4430;SDS011;2228;48.140;11.488;2022-09-13T09:12:35;2.78;;;0.90;;
4430;SDS011;2228;48.140;11.488;2022-09-13T09:15:07;3.20;;;1.00;;
4430;SDS011;2228;48.140;11.488;2022-09-13T09:17:42;1.30;;;0.90;;
4430;SDS011;2228;48.140;11.488;2022-09-13T09:20:17;1.80;;;1.10;;
4430;SDS011;2228;48.140;11.488;2022-09-13T09:22:50;3.13;;;1.00;;
4430;SDS011;2228;48.140;11.488;2022-09-13T09:25:19;1.40;;;0.80;;
4430;SDS011;2228;48.140;11.488;2022-09-13T09:27:50;3.67;;;0.90;;
4430;SDS011;2228;48.140;11.488;2022-09-13T09:30:17;2.88;;;0.90;;
4430;SDS011;2228;48.140;11.488;2022-09-13T09:32:46;1.40;;;0.80;;
4430;SDS011;2228;48.140;11.488;2022-09-13T09:35:34;1.92;;;0.77;;
4430;SDS011;2228;48.140;11.488;2022-09-13T09:38:17;3.13;;;0.90;;
4430;SDS011;2228;48.140;11.488;2022-09-13T09:40:55;1.20;;;0.80;;
4430;SDS011;2228;48.140;11.488;2022-09-13T09:43:28;1.30;;;0.80;;
4430;SDS011;2228;48.140;11.488;2022-09-13T09:45:59;1.85;;;0.90;;
4430;SDS011;2228;48.140;11.488;2022-09-13T09:48:29;0.90;;;0.80;;
4430;SDS011;2228;48.140;11.488;2022-09-13T09:51:05;2.97;;;1.10;;
4430;SDS011;2228;48.140;11.488;2022-09-13T09:53:36;1.30;;;0.80;;
4430;SDS011;2228;48.140;11.488;2022-09-13T09:56:13;4.03;;;0.90;;
4430;SDS011;2228;48.140;11.488;2022-09-13T09:58:48;2.50;;;0.90;;
4430;SDS011;2228;48.140;11.488;2022-09-13T10:01:21;2.80;;;0.98;;
4430;SDS011;2228;48.140;11.488;2022-09-13T10:03:51;6.60;;;0.90;;
4430;SDS011;2228;48.140;11.488;2022-09-13T10:06:23;1.40;;;0.80;;
4430;SDS011;2228;48.140;11.488;2022-09-13T10:08:54;1.60;;;0.90;;
4430;SDS011;2228;48.140;11.488;2022-09-13T10:11:36;2.80;;;0.88;;
4430;SDS011;2228;48.140;11.488;2022-09-13T10:14:21;1.88;;;0.93;;
4430;SDS011;2228;48.140;11.488;2022-09-13T10:17:03;3.80;;;2.20;;
4430;SDS011;2228;48.140;11.488;2022-09-13T10:19:31;8.10;;;1.00;;
4430;SDS011;2228;48.140;11.488;2022-09-13T10:22:00;1.85;;;0.80;;
4430;SDS011;2228;48.140;11.488;2022-09-13T10:24:28;1.00;;;0.90;;
4430;SDS011;2228;48.140;11.488;2022-09-13T10:26:55;1.60;;;0.90;;
4430;SDS011;2228;48.140;11.488;2022-09-13T10:29:23;1.38;;;0.90;;
4430;SDS011;2228;48.140;11.488;2022-09-13T10:31:52;6.35;;;2.60;;
4430;SDS011;2228;48.140;11.488;2022-09-13T10:34:22;1.50;;;0.80;;
4430;SDS011;2228;48.140;11.488;2022-09-13T10:36:54;1.35;;;0.70;;
4430;SDS011;2228;48.140;11.488;2022-09-13T10:39:24;2.45;;;1.00;;
4430;SDS011;2228;48.140;11.488;2022-09-13T10:41:53;7.10;;;1.00;;
4430;SDS011;2228;48.140;11.488;2022-09-13T10:44:26;3.40;;;0.80;;
4430;SDS011;2228;48.140;11.488;2022-09-13T10:46:56;1.00;;;0.80;;
4430;SDS011;2228;48.140;11.488;2022-09-13T10:49:43;1.58;;;1.00;;
4430;SDS011;2228;48.140;11.488;2022-09-13T10:52:25;0.90;;;0.80;;
4430;SDS011;2228;48.140;11.488;2022-09-13T10:54:55;1.05;;;0.70;;
4430;SDS011;2228;48.140;11.488;2022-09-13T10:57:51;1.10;;;0.80;;
4430;SDS011;2228;48.140;11.488;2022-09-13T11:00:21;1.13;;;0.70;;
4430;SDS011;2228;48.140;11.488;2022-09-13T11:02:59;2.50;;;0.90;;
4430;SDS011;2228;48.140;11.488;2022-09-13T11:05:47;0.90;;;0.60;;
4430;SDS011;2228;48.140;11.488;2022-09-13T11:08:24;0.90;;;0.75;;
4430;SDS011;2228;48.140;11.488;2022-09-13T11:11:05;1.23;;;0.80;;
4430;SDS011;2228;48.140;11.488;2022-09-13T11:13:48;2.75;;;1.88;;
4430;SDS011;2228;48.140;11.488;2022-09-13T11:16:33;4.53;;;2.55;;
4430;SDS011;2228;48.140;11.488;2022-09-13T11:19:12;1.30;;;0.70;;
4430;SDS011;2228;48.140;11.488;2022-09-13T11:22:16;2.92;;;0.75;;
4430;SDS011;2228;48.140;11.488;2022-09-13T11:24:54;2.00;;;0.80;;
4430;SDS011;2228;48.140;11.488;2022-09-13T11:27:30;1.50;;;0.80;;
4430;SDS011;2228;48.140;11.488;2022-09-13T11:30:08;1.45;;;0.75;;
4430;SDS011;2228;48.140;11.488;2022-09-13T11:32:43;3.28;;;0.70;;
4430;SDS011;2228;48.140;11.488;2022-09-13T11:35:25;3.88;;;1.38;;
4430;SDS011;2228;48.140;11.488;2022-09-13T11:38:03;3.33;;;2.15;;
4430;SDS011;2228;48.140;11.488;2022-09-13T11:40:42;2.47;;;1.20;;
4430;SDS011;2228;48.140;11.488;2022-09-13T11:43:19;2.50;;;0.85;;
4430;SDS011;2228;48.140;11.488;2022-09-13T11:46:00;1.10;;;0.70;;
4430;SDS011;2228;48.140;11.488;2022-09-13T11:51:48;2.65;;;0.80;;
4430;SDS011;2228;48.140;11.488;2022-09-13T11:54:29;4.30;;;2.00;;
4430;SDS011;2228;48.140;11.488;2022-09-13T11:57:06;2.90;;;0.70;;
4430;SDS011;2228;48.140;11.488;2022-09-13T11:59:37;2.05;;;0.75;;
4430;SDS011;2228;48.140;11.488;2022-09-13T12:02:11;2.20;;;0.70;;
4430;SDS011;2228;48.140;11.488;2022-09-13T12:04:44;1.00;;;0.70;;
4430;SDS011;2228;48.140;11.488;2022-09-13T12:07:23;1.40;;;0.90;;
4430;SDS011;2228;48.140;11.488;2022-09-13T12:09:57;1.27;;;0.90;;
4430;SDS011;2228;48.140;11.488;2022-09-13T12:12:31;2.15;;;0.90;;
4430;SDS011;2228;48.140;11.488;2022-09-13T12:15:01;1.97;;;1.27;;
4430;SDS011;2228;48.140;11.488;2022-09-13T12:17:34;1.53;;;1.10;;
4430;SDS011;2228;48.140;11.488;2022-09-13T12:20:05;1.00;;;0.80;;
4430;SDS011;2228;48.140;11.488;2022-09-13T12:22:39;2.05;;;1.13;;
4430;SDS011;2228;48.140;11.488;2022-09-13T12:25:11;1.20;;;0.80;;
4430;SDS011;2228;48.140;11.488;2022-09-13T12:27:47;2.00;;;0.90;;
4430;SDS011;2228;48.140;11.488;2022-09-13T12:30:19;0.98;;;0.70;;
4430;SDS011;2228;48.140;11.488;2022-09-13T12:32:47;1.10;;;0.73;;
4430;SDS011;2228;48.140;11.488;2022-09-13T12:35:16;0.68;;;0.60;;
4430;SDS011;2228;48.140;11.488;2022-09-13T12:38:05;1.05;;;0.75;;
4430;SDS011;2228;48.140;11.488;2022-09-13T12:40:57;1.30;;;0.80;;
4430;SDS011;2228;48.140;11.488;2022-09-13T12:43:46;0.98;;;0.80;;
4430;SDS011;2228;48.140;11.488;2022-09-13T12:46:39;2.70;;;0.80;;
4430;SDS011;2228;48.140;11.488;2022-09-13T12:49:32;1.10;;;0.60;;
4430;SDS011;2228;48.140;11.488;2022-09-13T12:52:22;2.38;;;0.90;;
4430;SDS011;2228;48.140;11.488;2022-09-13T12:57:56;1.40;;;0.70;;
4430;SDS011;2228;48.140;11.488;2022-09-13T13:00:29;1.88;;;0.70;;
4430;SDS011;2228;48.140;11.488;2022-09-13T13:03:01;1.20;;;0.70;;
4430;SDS011;2228;48.140;11.488;2022-09-13T13:05:36;2.50;;;0.70;;
4430;SDS011;2228;48.140;11.488;2022-09-13T13:11:00;2.10;;;0.70;;
4430;SDS011;2228;48.140;11.488;2022-09-13T13:13:32;2.20;;;0.70;;
4430;SDS011;2228;48.140;11.488;2022-09-13T13:16:03;0.80;;;0.70;;
4430;SDS011;2228;48.140;11.488;2022-09-13T13:18:42;0.70;;;0.60;;
4430;SDS011;2228;48.140;11.488;2022-09-13T13:21:21;2.38;;;0.60;;
4430;SDS011;2228;48.140;11.488;2022-09-13T13:27:00;1.40;;;0.60;;
4430;SDS011;2228;48.140;11.488;2022-09-13T13:29:27;1.10;;;0.70;;
4430;SDS011;2228;48.140;11.488;2022-09-13T13:32:06;1.50;;;0.70;;
4430;SDS011;2228;48.140;11.488;2022-09-13T13:34:38;0.80;;;0.70;;
4430;SDS011;2228;48.140;11.488;2022-09-13T13:37:23;1.20;;;0.60;;
4430;SDS011;2228;48.140;11.488;2022-09-13T13:42:48;1.42;;;0.70;;
4430;SDS011;2228;48.140;11.488;2022-09-13T13:45:16;2.13;;;0.80;;
4430;SDS011;2228;48.140;11.488;2022-09-13T13:47:52;1.00;;;0.63;;
4430;SDS011;2228;48.140;11.488;2022-09-13T13:50:31;1.00;;;0.77;;
4430;SDS011;2228;48.140;11.488;2022-09-13T13:52:58;4.38;;;0.70;;
4430;SDS011;2228;48.140;11.488;2022-09-13T13:55:44;1.88;;;0.60;;
4430;SDS011;2228;48.140;11.488;2022-09-13T13:58:28;1.70;;;0.70;;
4430;SDS011;2228;48.140;11.488;2022-09-13T14:00:59;1.75;;;0.90;;
4430;SDS011;2228;48.140;11.488;2022-09-13T14:03:30;1.70;;;0.70;;
4430;SDS011;2228;48.140;11.488;2022-09-13T14:06:14;1.02;;;0.70;;
4430;SDS011;2228;48.140;11.488;2022-09-13T14:08:51;0.88;;;0.70;;
4430;SDS011;2228;48.140;11.488;2022-09-13T14:11:31;1.80;;;0.70;;
4430;SDS011;2228;48.140;11.488;2022-09-13T14:14:14;1.23;;;0.70;;
4430;SDS011;2228;48.140;11.488;2022-09-13T14:17:09;1.20;;;0.70;;
4430;SDS011;2228;48.140;11.488;2022-09-13T14:19:57;1.15;;;0.60;;
4430;SDS011;2228;48.140;11.488;2022-09-13T14:22:28;2.88;;;0.70;;
4430;SDS011;2228;48.140;11.488;2022-09-13T14:24:55;0.73;;;0.60;;
4430;SDS011;2228;48.140;11.488;2022-09-13T14:27:25;1.15;;;0.70;;
4430;SDS011;2228;48.140;11.488;2022-09-13T14:29:56;1.90;;;0.60;;
4430;SDS011;2228;48.140;11.488;2022-09-13T14:32:25;1.00;;;0.70;;
4430;SDS011;2228;48.140;11.488;2022-09-13T14:34:55;2.05;;;0.80;;
4430;SDS011;2228;48.140;11.488;2022-09-13T14:37:25;1.50;;;0.80;;
4430;SDS011;2228;48.140;11.488;2022-09-13T14:39:57;0.70;;;0.60;;
4430;SDS011;2228;48.140;11.488;2022-09-13T14:42:36;2.30;;;0.80;;
4430;SDS011;2228;48.140;11.488;2022-09-13T14:45:09;2.35;;;0.65;;
4430;SDS011;2228;48.140;11.488;2022-09-13T14:47:41;2.17;;;0.70;;
4430;SDS011;2228;48.140;11.488;2022-09-13T14:50:14;2.60;;;0.80;;
4430;SDS011;2228;48.140;11.488;2022-09-13T14:52:45;2.20;;;0.80;;
4430;SDS011;2228;48.140;11.488;2022-09-13T14:55:17;1.50;;;0.70;;
4430;SDS011;2228;48.140;11.488;2022-09-13T14:57:47;3.60;;;0.75;;
4430;SDS011;2228;48.140;11.488;2022-09-13T15:00:19;1.50;;;0.70;;
4430;SDS011;2228;48.140;11.488;2022-09-13T15:02:48;2.40;;;0.80;;
4430;SDS011;2228;48.140;11.488;2022-09-13T15:05:18;3.60;;;0.70;;
4430;SDS011;2228;48.140;11.488;2022-09-13T15:07:46;2.50;;;0.70;;
4430;SDS011;2228;48.140;11.488;2022-09-13T15:10:20;3.90;;;0.70;;
4430;SDS011;2228;48.140;11.488;2022-09-13T15:12:50;2.40;;;1.00;;
4430;SDS011;2228;48.140;11.488;2022-09-13T15:15:25;3.42;;;0.70;;
4430;SDS011;2228;48.140;11.488;2022-09-13T15:18:00;2.40;;;0.70;;
4430;SDS011;2228;48.140;11.488;2022-09-13T15:20:30;1.67;;;1.00;;
4430;SDS011;2228;48.140;11.488;2022-09-13T15:23:12;1.00;;;0.70;;
4430;SDS011;2228;48.140;11.488;2022-09-13T15:25:45;4.00;;;0.90;;
4430;SDS011;2228;48.140;11.488;2022-09-13T15:28:18;1.10;;;0.77;;
4430;SDS011;2228;48.140;11.488;2022-09-13T15:30:49;2.47;;;1.00;;
4430;SDS011;2228;48.140;11.488;2022-09-13T15:33:24;0.98;;;0.80;;
4430;SDS011;2228;48.140;11.488;2022-09-13T15:38:59;4.68;;;0.95;;
4430;SDS011;2228;48.140;11.488;2022-09-13T15:41:28;0.75;;;0.73;;
4430;SDS011;2228;48.140;11.488;2022-09-13T15:43:57;1.90;;;1.10;;
4430;SDS011;2228;48.140;11.488;2022-09-13T15:46:27;2.90;;;0.80;;
4430;SDS011;2228;48.140;11.488;2022-09-13T15:48:56;2.45;;;0.70;;
4430;SDS011;2228;48.140;11.488;2022-09-13T15:51:24;0.70;;;0.60;;